Time;durP1;ratioP1;P1;durP2;ratioP2;P2;SDS_P1;SDS_P2;PMS_P1;PMS_P2;Temp;Humidity;BMP_temperature;BMP_pressure;BME280_temperature;BME280_humidity;BME280_pressure;Samples;Min_cycle;Max_cycle;Signal;HPM_P1;HPM_P2
2022/01/31 00:00:31;;;;;;;4.00;1.90;;;;;;;1.80;82.03;99285.60;89577;1277;100176;-62
2022/01/31 00:02:51;;;;;;;4.00;1.20;;;;;;;1.81;82.07;99285.21;89589;1277;89392;-70
2022/01/31 00:05:03;;;;;;;4.00;1.00;;;;;;;1.81;82.08;99293.86;89591;1277;95872;-71
2022/01/31 00:07:12;;;;;;;4.40;0.90;;;;;;;1.83;81.74;99286.41;89601;1277;78596;-63
2022/01/31 00:09:22;;;;;;;1.30;0.70;;;;;;;1.88;81.70;99294.09;89604;1277;80631;-62
2022/01/31 00:11:41;;;;;;;1.70;0.60;;;;;;;1.89;81.48;99292.02;89627;1277;100059;-71
2022/01/31 00:14:01;;;;;;;1.90;0.70;;;;;;;1.90;81.53;99296.48;89612;1277;89236;-72
2022/01/31 00:16:23;;;;;;;1.90;0.60;;;;;;;1.84;81.34;99296.60;89595;1277;94627;-69
2022/01/31 00:18:32;;;;;;;1.30;0.40;;;;;;;1.82;81.28;99294.16;89594;1277;78785;-62
2022/01/31 00:20:41;;;;;;;2.00;0.60;;;;;;;1.83;81.12;99284.29;89597;1277;82256;-61
2022/01/31 00:22:53;;;;;;;3.30;0.50;;;;;;;1.82;81.12;99292.54;89599;1277;99681;-70
2022/01/31 00:25:02;;;;;;;1.40;0.60;;;;;;;1.82;80.97;99293.64;89605;1277;89107;-71
2022/01/31 00:27:12;;;;;;;2.30;0.60;;;;;;;1.77;81.20;99291.80;89594;1277;95346;-62
2022/01/31 00:29:21;;;;;;;0.90;0.40;;;;;;;1.74;80.86;99294.43;89591;1277;78855;-64
2022/01/31 00:31:29;;;;;;;1.30;0.40;;;;;;;1.70;80.50;99292.34;89601;1277;83878;-70
2022/01/31 00:33:38;;;;;;;1.50;0.60;;;;;;;1.70;80.60;99288.80;89579;1277;99900;-72
2022/01/31 00:35:47;;;;;;;2.00;0.50;;;;;;;1.72;80.69;99286.98;89589;1277;87920;-71
2022/01/31 00:37:59;;;;;;;2.50;0.60;;;;;;;1.75;80.75;99286.98;89592;1277;95358;-71
2022/01/31 00:40:11;;;;;;;3.00;0.70;;;;;;;1.80;80.59;99287.21;89585;1277;80830;-71
2022/01/31 00:42:20;;;;;;;2.00;0.60;;;;;;;1.85;80.74;99290.61;89611;1276;80756;-66
2022/01/31 00:44:39;;;;;;;1.30;0.50;;;;;;;1.90;80.72;99293.69;89579;1277;100273;-62
2022/01/31 00:46:57;;;;;;;1.90;0.60;;;;;;;1.92;80.74;99293.37;89585;1277;88154;-72
2022/01/31 00:49:11;;;;;;;2.20;0.60;;;;;;;1.94;80.52;99289.61;89389;1278;95421;-71
2022/01/31 00:51:20;;;;;;;1.90;0.80;;;;;;;1.97;80.67;99294.85;89597;1277;77756;-70
2022/01/31 00:53:29;;;;;;;1.60;0.60;;;;;;;1.99;80.72;99299.92;89609;1277;81854;-71
2022/01/31 00:55:38;;;;;;;2.40;0.80;;;;;;;1.99;80.42;99302.61;89601;1277;99295;-72
2022/01/31 00:57:47;;;;;;;3.90;0.70;;;;;;;1.99;80.30;99297.49;89569;1277;88557;-71
2022/01/31 00:59:59;;;;;;;3.40;0.80;;;;;;;1.96;80.42;99304.70;89578;1277;94239;-71
2022/01/31 01:02:11;;;;;;;2.80;0.80;;;;;;;1.93;80.23;99306.27;89605;1277;77873;-71
2022/01/31 01:04:19;;;;;;;3.50;0.80;;;;;;;1.83;80.15;99307.91;89582;1277;82601;-71
2022/01/31 01:06:31;;;;;;;1.20;0.60;;;;;;;1.74;80.21;99311.96;89562;1277;99405;-71
2022/01/31 01:08:40;;;;;;;2.70;0.70;;;;;;;1.66;80.04;99311.23;89597;1277;88958;-72
2022/01/31 01:10:48;;;;;;;1.90;0.70;;;;;;;1.62;80.00;99315.77;89565;1277;95127;-72
2022/01/31 01:13:00;;;;;;;3.20;0.80;;;;;;;1.57;79.97;99320.33;89554;1277;79532;-72
2022/01/31 01:15:14;;;;;;;3.20;1.10;;;;;;;1.55;79.95;99324.42;89571;1277;83601;-71
2022/01/31 01:17:22;;;;;;;2.70;0.80;;;;;;;1.52;79.93;99324.64;89553;1277;98942;-71
2022/01/31 01:19:31;;;;;;;2.40;0.60;;;;;;;1.47;79.63;99333.08;89560;1277;88905;-72
2022/01/31 01:21:40;;;;;;;4.10;0.90;;;;;;;1.44;79.72;99341.36;89558;1277;95593;-62
2022/01/31 01:23:49;;;;;;;4.00;0.70;;;;;;;1.39;79.76;99342.27;89569;1275;81250;-62
2022/01/31 01:25:58;;;;;;;1.60;0.60;;;;;;;1.36;79.72;99349.83;89581;1277;83576;-61
2022/01/31 01:28:07;;;;;;;1.90;0.60;;;;;;;1.34;79.57;99352.73;89551;1276;100277;-61
2022/01/31 01:30:17;;;;;;;3.10;1.00;;;;;;;1.31;79.62;99344.23;89588;1276;87372;-62
2022/01/31 01:32:31;;;;;;;2.80;0.80;;;;;;;1.27;79.44;99345.90;89549;1277;94214;-71
2022/01/31 01:34:40;;;;;;;2.70;0.80;;;;;;;1.20;79.28;99348.88;89545;1277;79703;-71
2022/01/31 01:36:52;;;;;;;4.80;0.80;;;;;;;1.15;79.38;99352.24;89587;1277;82548;-61
2022/01/31 01:39:01;;;;;;;2.90;0.70;;;;;;;1.07;79.30;99348.09;89575;1277;98610;-61
2022/01/31 01:41:14;;;;;;;2.00;0.70;;;;;;;0.99;79.38;99358.56;89558;1277;89571;-66
2022/01/31 01:43:26;;;;;;;2.40;0.70;;;;;;;0.94;79.29;99358.79;89358;1277;93835;-61
2022/01/31 01:45:39;;;;;;;3.20;1.00;;;;;;;0.88;79.24;99357.97;89558;1277;78846;-61
2022/01/31 01:47:51;;;;;;;2.60;0.60;;;;;;;0.84;79.25;99358.54;89585;1277;80343;-71
2022/01/31 01:50:04;;;;;;;3.00;0.70;;;;;;;0.80;79.24;99355.95;89535;1277;99958;-71
2022/01/31 01:52:18;;;;;;;2.90;0.70;;;;;;;0.78;79.15;99358.48;89411;1278;89290;-71
2022/01/31 01:54:30;;;;;;;2.70;0.70;;;;;;;0.75;79.21;99362.34;89583;1277;95277;-71
2022/01/31 01:56:39;;;;;;;2.90;0.90;;;;;;;0.73;79.24;99359.86;89407;1278;80521;-61
2022/01/31 01:58:49;;;;;;;2.10;0.70;;;;;;;0.70;79.19;99351.77;89573;1277;82440;-61
2022/01/31 02:01:02;;;;;;;3.70;0.90;;;;;;;0.72;79.17;99351.67;89557;1277;99722;-61
2022/01/31 02:03:13;;;;;;;1.40;0.50;;;;;;;0.72;79.07;99351.59;89608;1277;86900;-71
2022/01/31 02:05:25;;;;;;;2.90;0.90;;;;;;;0.76;79.05;99349.98;89556;1277;95898;-70
2022/01/31 02:07:35;;;;;;;4.50;0.90;;;;;;;0.74;79.09;99351.74;89572;1277;77938;-72
2022/01/31 02:09:55;;;;;;;3.00;1.10;;;;;;;0.73;79.11;99349.93;89568;1277;79296;-71
2022/01/31 02:12:05;;;;;;;3.50;0.80;;;;;;;0.74;79.14;99343.48;89586;1277;98545;-61
2022/01/31 02:14:17;;;;;;;2.60;1.10;;;;;;;0.76;79.14;99341.52;89560;1277;88474;-61
2022/01/31 02:16:26;;;;;;;4.20;1.00;;;;;;;0.81;79.20;99342.02;89581;1277;94135;-61
2022/01/31 02:18:43;;;;;;;2.50;0.60;;;;;;;0.87;79.27;99344.43;89559;1277;81204;-61
2022/01/31 02:20:52;;;;;;;2.50;0.60;;;;;;;0.94;79.12;99338.23;89428;1278;81943;-61
2022/01/31 02:23:03;;;;;;;1.60;0.50;;;;;;;1.03;79.05;99338.74;89434;1278;98781;-71
2022/01/31 02:25:13;;;;;;;2.70;0.60;;;;;;;1.10;79.18;99338.90;89584;1277;88998;-70
2022/01/31 02:27:32;;;;;;;1.70;0.70;;;;;;;1.18;79.10;99340.02;89399;1279;95519;-61
2022/01/31 02:29:41;;;;;;;2.10;0.70;;;;;;;1.27;79.21;99338.59;89548;1276;80236;-62
2022/01/31 02:31:52;;;;;;;2.60;0.70;;;;;;;1.31;79.31;99343.08;89563;1277;82467;-61
2022/01/31 02:34:01;;;;;;;2.20;0.80;;;;;;;1.35;79.36;99344.83;89577;1277;98016;-61
2022/01/31 02:36:11;;;;;;;2.20;0.60;;;;;;;1.41;79.45;99339.04;89584;1277;88129;-70
2022/01/31 02:38:24;;;;;;;5.80;1.00;;;;;;;1.47;79.53;99341.23;89555;1277;95689;-71
2022/01/31 02:40:33;;;;;;;1.60;0.60;;;;;;;1.52;79.52;99332.77;89551;1277;79337;-71
2022/01/31 02:42:42;;;;;;;4.00;1.00;;;;;;;1.55;79.58;99327.52;89598;1277;83512;-70
2022/01/31 02:44:51;;;;;;;3.10;0.80;;;;;;;1.57;79.76;99328.86;89559;1277;98755;-70
2022/01/31 02:47:04;;;;;;;2.20;0.80;;;;;;;1.60;79.68;99324.17;89441;1278;88477;-70
2022/01/31 02:49:18;;;;;;;2.20;0.50;;;;;;;1.60;79.66;99321.41;89530;1277;95434;-70
2022/01/31 02:51:31;;;;;;;4.00;1.10;;;;;;;1.60;79.82;99336.66;89586;1277;79663;-61
2022/01/31 02:53:41;;;;;;;3.70;1.20;;;;;;;1.61;79.90;99326.81;89535;1277;81017;-61
2022/01/31 02:55:51;;;;;;;3.40;1.30;;;;;;;1.59;79.83;99323.97;89558;1277;99420;-61
2022/01/31 02:57:59;;;;;;;4.60;1.40;;;;;;;1.56;79.82;99319.39;89571;1277;88557;-61
2022/01/31 03:00:12;;;;;;;3.70;1.10;;;;;;;1.54;79.95;99314.10;89560;1277;94289;-61
2022/01/31 03:02:21;;;;;;;4.00;1.30;;;;;;;1.50;80.02;99315.55;89409;1278;80724;-61
2022/01/31 03:04:30;;;;;;;4.80;1.50;;;;;;;1.52;80.16;99317.88;89567;1277;81419;-61
2022/01/31 03:06:42;;;;;;;4.70;1.90;;;;;;;1.51;80.32;99317.45;89574;1277;99636;-61
2022/01/31 03:08:55;;;;;;;5.30;1.80;;;;;;;1.53;80.45;99325.58;89532;1277;87255;-61
2022/01/31 03:11:04;;;;;;;5.00;1.60;;;;;;;1.55;80.60;99329.27;89545;1277;94323;-61
2022/01/31 03:13:13;;;;;;;3.30;1.30;;;;;;;1.58;80.65;99317.52;89454;1278;78159;-70
2022/01/31 03:15:25;;;;;;;3.90;1.30;;;;;;;1.58;80.65;99309.96;89553;1277;80148;-70
2022/01/31 03:17:34;;;;;;;4.20;1.60;;;;;;;1.56;80.72;99307.89;89428;1278;99757;-61
2022/01/31 03:19:44;;;;;;;5.80;1.90;;;;;;;1.55;80.78;99312.68;89560;1277;87507;-61
2022/01/31 03:21:53;;;;;;;5.00;2.30;;;;;;;1.58;80.88;99311.92;89419;1278;93238;-61
2022/01/31 03:24:02;;;;;;;5.80;1.90;;;;;;;1.59;80.77;99313.33;89521;1277;79344;-61
2022/01/31 03:26:11;;;;;;;4.80;2.10;;;;;;;1.59;80.69;99310.66;89552;1277;82431;-64
2022/01/31 03:28:21;;;;;;;7.20;2.40;;;;;;;1.66;80.77;99317.02;89570;1277;98739;-61
2022/01/31 03:30:30;;;;;;;6.20;2.20;;;;;;;1.70;80.79;99316.11;89555;1277;88898;-61
2022/01/31 03:32:43;;;;;;;4.50;2.00;;;;;;;1.73;80.80;99325.97;89554;1277;94394;-61
2022/01/31 03:34:51;;;;;;;9.90;2.50;;;;;;;1.76;80.62;99320.41;89544;1277;79045;-61
2022/01/31 03:37:03;;;;;;;6.30;2.10;;;;;;;1.73;80.56;99319.69;89458;1278;82023;-61
2022/01/31 03:39:12;;;;;;;10.80;2.60;;;;;;;1.72;80.40;99325.70;89545;1277;99149;-61
2022/01/31 03:41:26;;;;;;;6.50;2.20;;;;;;;1.69;80.53;99328.70;89562;1277;87955;-70
2022/01/31 03:43:33;;;;;;;;;;;;;;;1.67;80.37;99316.73;89460;1278;95611;-70
2022/01/31 03:45:42;;;;;;;8.10;1.90;;;;;;;1.66;80.26;99309.13;89553;1277;79104;-70
2022/01/31 03:47:51;;;;;;;7.30;1.70;;;;;;;1.65;80.23;99313.65;89573;1277;82399;-70
2022/01/31 03:49:59;;;;;;;7.50;1.80;;;;;;;1.59;80.25;99324.52;89420;1278;100069;-70
2022/01/31 03:52:08;;;;;;;9.00;1.90;;;;;;;1.57;80.31;99335.91;89555;1277;89679;-70
2022/01/31 03:54:18;;;;;;;9.90;2.50;;;;;;;1.54;80.35;99335.36;89520;1277;94627;-70
2022/01/31 03:56:27;;;;;;;6.50;2.50;;;;;;;1.53;80.45;99329.99;89541;1277;80773;-62
2022/01/31 03:58:36;;;;;;;11.30;2.30;;;;;;;1.53;80.38;99323.26;89459;1278;81964;-61
2022/01/31 04:00:50;;;;;;;6.90;1.90;;;;;;;1.56;80.27;99318.84;89420;1278;98816;-61
2022/01/31 04:02:59;;;;;;;9.90;2.60;;;;;;;1.63;80.38;99314.94;89546;1277;88340;-70
2022/01/31 04:05:10;;;;;;;7.40;1.90;;;;;;;1.69;80.28;99315.50;89559;1277;95841;-70
2022/01/31 04:07:18;;;;;;;6.90;2.10;;;;;;;1.71;80.19;99321.30;89548;1277;77455;-70
2022/01/31 04:09:28;;;;;;;8.00;2.10;;;;;;;1.71;80.15;99322.23;89536;1277;80474;-71
2022/01/31 04:11:37;;;;;;;12.10;2.00;;;;;;;1.67;80.00;99319.98;89569;1277;100214;-71
2022/01/31 04:13:46;;;;;;;6.80;1.80;;;;;;;1.64;80.06;99311.10;89570;1277;88048;-71
2022/01/31 04:15:54;;;;;;;11.70;2.10;;;;;;;1.64;80.09;99307.73;89543;1277;95972;-71
2022/01/31 04:18:04;;;;;;;9.50;2.50;;;;;;;1.58;79.99;99307.97;89543;1277;78305;-62
2022/01/31 04:20:14;;;;;;;9.80;2.00;;;;;;;1.52;79.98;99315.16;89557;1277;81895;-62
2022/01/31 04:22:27;;;;;;;8.10;2.10;;;;;;;1.42;80.01;99314.83;89545;1277;100317;-61
2022/01/31 04:24:35;;;;;;;6.90;2.80;;;;;;;1.38;80.05;99324.09;89553;1277;87879;-66
2022/01/31 04:26:44;;;;;;;6.70;1.90;;;;;;;1.35;80.17;99320.38;89539;1277;95899;-70
2022/01/31 04:29:02;;;;;;;10.00;2.50;;;;;;;1.35;80.19;99324.04;89434;1278;80374;-71
2022/01/31 04:31:34;;;;;;;10.60;2.20;;;;;;;1.38;80.33;99315.27;89548;1277;82995;-64
2022/01/31 04:33:45;;;;;;;7.80;1.90;;;;;;;1.37;80.37;99310.55;89420;1278;98279;-72
2022/01/31 04:35:54;;;;;;;6.90;1.90;;;;;;;1.39;80.32;99307.90;89516;1277;87675;-71
2022/01/31 04:38:03;;;;;;;10.30;2.20;;;;;;;1.38;80.32;99304.64;89529;1277;95334;-71
2022/01/31 04:40:16;;;;;;;9.70;2.50;;;;;;;1.38;80.37;99304.21;89496;1277;80824;-72
2022/01/31 04:42:25;;;;;;;12.90;2.90;;;;;;;1.36;80.42;99305.66;89547;1277;83628;-62
2022/01/31 04:44:38;;;;;;;9.40;2.60;;;;;;;1.34;80.47;99301.80;89443;1278;98664;-61
2022/01/31 04:46:49;;;;;;;12.10;2.40;;;;;;;1.36;80.36;99302.27;89513;1277;89268;-71
2022/01/31 04:48:58;;;;;;;8.30;2.20;;;;;;;1.40;80.51;99304.89;89523;1277;95586;-71
2022/01/31 04:51:11;;;;;;;9.70;2.90;;;;;;;1.39;80.55;99308.89;89438;1278;78608;-71
2022/01/31 04:53:24;;;;;;;14.30;3.30;;;;;;;1.37;80.34;99302.61;89546;1277;83188;-70
2022/01/31 04:55:34;;;;;;;9.70;2.90;;;;;;;1.34;80.37;99306.79;89520;1277;97129;-71
2022/01/31 04:57:43;;;;;;;13.00;3.80;;;;;;;1.34;80.39;99306.73;89524;1277;88644;-62
2022/01/31 04:59:52;;;;;;;12.90;3.00;;;;;;;1.31;80.42;99306.40;89511;1277;94656;-62
2022/01/31 05:02:01;;;;;;;9.70;2.80;;;;;;;1.27;80.42;99310.85;89530;1277;79207;-62
2022/01/31 05:04:10;;;;;;;11.70;3.20;;;;;;;1.26;80.34;99311.52;89527;1277;81431;-62
2022/01/31 05:06:26;;;;;;;10.10;2.50;;;;;;;1.25;80.44;99309.52;89519;1277;100293;-62
2022/01/31 05:08:38;;;;;;;14.40;2.80;;;;;;;1.24;80.48;99309.85;89557;1277;88072;-62
2022/01/31 05:10:49;;;;;;;9.90;3.10;;;;;;;1.24;80.41;99308.25;89500;1277;95113;-61
2022/01/31 05:12:59;;;;;;;9.30;2.40;;;;;;;1.20;80.54;99305.23;89488;1277;80818;-64
2022/01/31 05:15:10;;;;;;;12.10;3.00;;;;;;;1.19;80.58;99304.56;89531;1277;80758;-61
2022/01/31 05:17:22;;;;;;;9.90;2.40;;;;;;;1.22;80.47;99308.17;89516;1277;98640;-61
2022/01/31 05:19:32;;;;;;;12.40;2.90;;;;;;;1.26;80.47;99306.27;89420;1278;87599;-60
2022/01/31 05:21:41;;;;;;;7.80;2.50;;;;;;;1.25;80.42;99302.91;89512;1277;95214;-61
2022/01/31 05:23:54;;;;;;;10.40;2.70;;;;;;;1.20;80.49;99294.05;89520;1277;80582;-70
2022/01/31 05:26:06;;;;;;;9.10;2.40;;;;;;;1.18;80.49;99301.39;89513;1277;83485;-71
2022/01/31 05:28:14;;;;;;;9.20;2.80;;;;;;;1.19;80.46;99298.08;89527;1277;99288;-70
2022/01/31 05:30:23;;;;;;;11.50;2.50;;;;;;;1.23;80.49;99295.91;89550;1277;87583;-70
2022/01/31 05:32:32;;;;;;;10.60;2.40;;;;;;;1.23;80.44;99293.98;89509;1277;94487;-60
2022/01/31 05:34:42;;;;;;;12.30;3.80;;;;;;;1.22;80.50;99295.80;89516;1277;78380;-60
2022/01/31 05:36:55;;;;;;;12.20;3.60;;;;;;;1.19;80.33;99283.31;89517;1277;82806;-61
2022/01/31 05:39:03;;;;;;;15.60;3.50;;;;;;;1.14;80.27;99289.83;89531;1277;99874;-60
2022/01/31 05:41:18;;;;;;;12.00;3.40;;;;;;;1.10;80.44;99292.45;89519;1277;88765;-62
2022/01/31 05:43:28;;;;;;;11.30;3.70;;;;;;;1.05;80.40;99287.80;89475;1277;95177;-60
2022/01/31 05:45:37;;;;;;;10.10;3.30;;;;;;;0.97;80.47;99290.73;89500;1277;80586;-61
2022/01/31 05:47:46;;;;;;;10.90;3.10;;;;;;;0.98;80.42;99293.15;89522;1277;80984;-61
2022/01/31 05:49:58;;;;;;;10.10;3.20;;;;;;;0.98;80.40;99291.92;89485;1277;96597;-61
2022/01/31 05:52:08;;;;;;;11.70;2.80;;;;;;;0.97;80.63;99288.39;89505;1277;89067;-60
2022/01/31 05:54:17;;;;;;;14.30;3.30;;;;;;;0.96;80.67;99283.02;89452;1278;94389;-60
2022/01/31 05:56:26;;;;;;;11.80;3.50;;;;;;;0.96;80.67;99279.64;89507;1277;79745;-69
2022/01/31 05:58:36;;;;;;;11.30;3.10;;;;;;;0.96;80.60;99281.30;89496;1277;83017;-70
2022/01/31 06:00:45;;;;;;;10.90;3.50;;;;;;;0.95;80.67;99280.35;89468;1277;100315;-70
2022/01/31 06:03:01;;;;;;;15.70;3.80;;;;;;;0.92;80.61;99283.06;89445;1278;87613;-69
2022/01/31 06:05:12;;;;;;;15.10;4.50;;;;;;;0.91;80.68;99273.88;89476;1277;95219;-70
2022/01/31 06:07:20;;;;;;;10.90;4.20;;;;;;;0.92;80.67;99276.95;89486;1277;79509;-68
2022/01/31 06:09:31;;;;;;;9.60;3.50;;;;;;;0.90;80.74;99275.40;89513;1277;82426;-68
2022/01/31 06:11:41;;;;;;;16.00;4.00;;;;;;;0.91;80.69;99277.41;89510;1277;99535;-68
2022/01/31 06:13:51;;;;;;;14.20;4.20;;;;;;;0.90;80.75;99276.04;89526;1277;89614;-67
2022/01/31 06:16:00;;;;;;;12.50;3.90;;;;;;;0.92;80.78;99278.05;89495;1277;93301;-67
2022/01/31 06:18:10;;;;;;;12.70;4.20;;;;;;;0.95;80.67;99283.19;84923;1277;3012933;-67
2022/01/31 06:20:20;;;;;;;12.70;3.70;;;;;;;0.97;80.73;99281.38;89492;1278;80451;-67
2022/01/31 06:22:31;;;;;;;12.10;3.70;;;;;;;1.00;80.80;99281.98;89508;1277;99448;-66
2022/01/31 06:24:41;;;;;;;14.80;4.00;;;;;;;0.95;80.72;99283.86;89525;1277;88052;-67
2022/01/31 06:26:50;;;;;;;14.20;4.10;;;;;;;0.97;80.73;99284.73;89498;1277;93345;-66
2022/01/31 06:29:01;;;;;;;13.20;4.40;;;;;;;0.96;80.68;99285.66;89435;1278;78305;-66
2022/01/31 06:31:12;;;;;;;11.10;3.30;;;;;;;0.97;80.58;99278.70;89502;1277;82643;-65
2022/01/31 06:33:21;;;;;;;11.40;4.30;;;;;;;0.99;80.55;99284.29;89505;1277;98123;-67
2022/01/31 06:35:30;;;;;;;14.40;4.50;;;;;;;1.00;80.48;99280.51;89516;1277;89052;-67
2022/01/31 06:37:39;;;;;;;10.70;3.10;;;;;;;0.99;80.54;99287.04;89498;1277;95098;-59
2022/01/31 06:39:49;;;;;;;12.60;2.90;;;;;;;0.95;80.42;99283.66;89514;1277;79083;-59
2022/01/31 06:42:01;;;;;;;10.70;3.50;;;;;;;0.96;80.39;99281.96;89494;1277;81714;-68
2022/01/31 06:44:10;;;;;;;15.30;4.20;;;;;;;0.96;80.27;99279.17;89423;1278;100169;-67
2022/01/31 06:46:19;;;;;;;12.70;3.80;;;;;;;0.94;80.13;99271.95;89501;1277;87400;-66
2022/01/31 06:48:28;;;;;;;16.20;3.30;;;;;;;0.81;80.19;99271.13;89497;1277;94968;-67
2022/01/31 06:50:37;;;;;;;13.90;3.50;;;;;;;0.82;80.26;99272.46;89475;1277;81767;-67
2022/01/31 06:52:50;;;;;;;14.40;3.80;;;;;;;0.85;80.23;99268.47;89490;1277;80217;-60
2022/01/31 06:55:02;;;;;;;14.80;4.90;;;;;;;0.88;80.30;99265.42;89511;1277;97898;-60
2022/01/31 06:57:12;;;;;;;12.60;3.90;;;;;;;1.00;80.18;99262.98;89455;1278;88139;-60
2022/01/31 06:59:21;;;;;;;11.30;3.90;;;;;;;1.19;80.31;99251.09;89482;1277;93857;-59
2022/01/31 07:01:31;;;;;;;14.80;3.70;;;;;;;1.33;80.01;99250.64;89507;1277;77297;-67
2022/01/31 07:03:40;;;;;;;13.60;3.70;;;;;;;1.53;80.07;99252.83;89524;1277;80864;-67
2022/01/31 07:05:50;;;;;;;11.50;4.00;;;;;;;1.72;79.95;99252.17;89466;1278;99103;-60
2022/01/31 07:07:58;;;;;;;15.00;3.60;;;;;;;1.80;79.61;99262.34;89513;1278;87789;-67
2022/01/31 07:10:10;;;;;;;13.10;4.10;;;;;;;1.84;79.55;99265.55;89499;1278;94507;-67
2022/01/31 07:12:23;;;;;;;13.20;3.90;;;;;;;1.85;79.42;99263.33;89510;1278;77505;-67
2022/01/31 07:14:32;;;;;;;14.20;4.20;;;;;;;1.81;79.18;99263.70;89518;1277;80515;-68
2022/01/31 07:16:43;;;;;;;9.80;4.10;;;;;;;1.68;79.34;99260.47;89513;1278;99136;-67
2022/01/31 07:18:58;;;;;;;13.90;3.70;;;;;;;1.56;79.34;99256.05;89513;1277;86667;-67
2022/01/31 07:21:12;;;;;;;11.10;3.00;;;;;;;1.50;79.41;99260.92;89464;1277;96520;-67
2022/01/31 07:23:26;;;;;;;12.90;3.10;;;;;;;1.48;79.33;99254.77;89469;1278;79129;-68
2022/01/31 07:25:38;;;;;;;11.20;3.40;;;;;;;1.44;79.36;99258.55;89484;1277;82808;-68
2022/01/31 07:27:47;;;;;;;8.40;2.70;;;;;;;1.46;79.44;99255.02;89502;1276;99826;-60
2022/01/31 07:30:00;;;;;;;10.50;3.00;;;;;;;1.49;79.50;99256.30;89414;1279;89082;-69
2022/01/31 07:32:12;;;;;;;11.50;2.90;;;;;;;1.62;79.47;99257.55;89485;1277;94166;-67
2022/01/31 07:34:22;;;;;;;11.00;3.30;;;;;;;1.81;79.39;99254.29;89426;1278;78950;-67
2022/01/31 07:36:32;;;;;;;12.90;3.40;;;;;;;1.99;79.51;99247.08;89452;1278;81846;-61
2022/01/31 07:38:42;;;;;;;9.50;3.60;;;;;;;2.03;79.26;99251.59;89497;1277;99954;-61
2022/01/31 07:40:57;;;;;;;16.10;4.60;;;;;;;2.06;79.27;99252.52;89467;1278;89126;-66
2022/01/31 07:43:06;;;;;;;15.50;4.30;;;;;;;2.12;79.03;99247.54;89502;1278;94329;-66
2022/01/31 07:45:18;;;;;;;13.30;3.40;;;;;;;2.11;78.88;99251.90;89473;1278;79417;-67
2022/01/31 07:47:27;;;;;;;14.10;4.20;;;;;;;2.13;78.99;99252.23;89454;1278;82930;-63
2022/01/31 07:49:38;;;;;;;15.00;3.60;;;;;;;2.12;78.73;99251.30;89516;1277;100094;-61
2022/01/31 07:51:47;;;;;;;10.90;4.30;;;;;;;2.08;78.74;99244.07;89513;1278;87352;-70
2022/01/31 07:53:57;;;;;;;11.10;3.30;;;;;;;1.96;78.39;99246.68;89477;1277;95635;-68
2022/01/31 07:56:08;;;;;;;12.50;3.90;;;;;;;1.83;78.64;99237.79;89491;1278;77493;-67
2022/01/31 07:58:20;;;;;;;15.10;4.60;;;;;;;1.82;78.63;99239.31;89497;1278;80721;-67
2022/01/31 08:00:33;;;;;;;12.00;3.60;;;;;;;1.83;78.59;99239.88;89487;1277;99630;-69
2022/01/31 08:02:46;;;;;;;9.50;3.40;;;;;;;1.79;78.63;99234.92;89498;1278;89455;-69
2022/01/31 08:04:56;;;;;;;11.50;3.40;;;;;;;1.74;78.66;99235.67;89512;1277;95696;-69
2022/01/31 08:07:06;;;;;;;14.50;4.10;;;;;;;1.69;78.81;99232.86;89495;1277;80361;-61
2022/01/31 08:09:14;;;;;;;11.80;3.00;;;;;;;1.77;78.82;99228.92;89504;1277;82863;-61
2022/01/31 08:11:25;;;;;;;12.90;3.60;;;;;;;1.83;78.68;99232.10;89526;1277;99399;-68
2022/01/31 08:13:38;;;;;;;10.60;3.30;;;;;;;1.79;78.48;99235.85;89531;1277;85817;-70
2022/01/31 08:16:01;;;;;;;11.40;3.90;;;;;;;1.83;78.46;99233.02;89488;1277;95880;-69
2022/01/31 08:18:10;;;;;;;13.10;3.70;;;;;;;1.90;78.40;99235.91;89479;1277;77874;-61
2022/01/31 08:20:23;;;;;;;11.80;4.20;;;;;;;1.98;78.35;99234.23;89519;1278;80870;-61
2022/01/31 08:22:33;;;;;;;16.40;4.10;;;;;;;2.10;78.56;99235.69;89490;1278;100039;-70
2022/01/31 08:24:42;;;;;;;14.60;4.10;;;;;;;2.22;78.25;99232.14;89633;1266;89163;-69
2022/01/31 08:26:52;;;;;;;12.30;3.90;;;;;;;2.33;78.11;99231.64;89794;1273;95810;-70
2022/01/31 08:29:15;;;;;;;8.10;3.40;;;;;;;2.41;78.09;99220.77;89820;1273;78782;-69
2022/01/31 08:31:34;;;;;;;15.10;4.10;;;;;;;2.54;77.86;99224.86;89703;1274;83232;-69
2022/01/31 08:33:49;;;;;;;10.70;3.60;;;;;;;2.67;77.88;99225.02;89779;1273;98774;-69
2022/01/31 08:35:58;;;;;;;10.50;3.90;;;;;;;2.85;77.69;99223.91;89749;1273;89649;-69
2022/01/31 08:38:07;;;;;;;12.30;4.50;;;;;;;2.92;77.65;99217.46;89762;1273;95668;-69
2022/01/31 08:40:19;;;;;;;16.10;4.20;;;;;;;2.80;77.26;99217.20;89637;1276;80361;-69
2022/01/31 08:42:29;;;;;;;12.10;4.30;;;;;;;2.68;77.11;99214.55;89787;1273;82150;-69
2022/01/31 08:44:41;;;;;;;12.40;4.10;;;;;;;2.49;76.67;99210.47;89749;1273;99388;-68
2022/01/31 08:46:51;;;;;;;8.70;3.30;;;;;;;2.50;77.07;99210.38;89776;1273;89116;-69
2022/01/31 08:49:00;;;;;;;15.30;4.40;;;;;;;2.54;77.17;99211.94;89750;1273;96033;-62
2022/01/31 08:51:14;;;;;;;11.30;4.00;;;;;;;2.55;76.92;99214.27;89740;1273;78602;-62
2022/01/31 08:53:23;;;;;;;13.30;3.90;;;;;;;2.50;76.99;99213.94;89774;1273;79422;-68
2022/01/31 08:55:33;;;;;;;10.70;4.00;;;;;;;2.38;76.84;99210.97;89747;1273;98023;-69
2022/01/31 08:57:45;;;;;;;13.40;3.80;;;;;;;2.25;76.77;99213.09;89772;1273;87432;-69
2022/01/31 08:59:54;;;;;;;11.30;3.70;;;;;;;2.24;77.04;99212.77;89751;1273;94231;-62
2022/01/31 09:02:12;;;;;;;13.90;3.80;;;;;;;2.31;77.01;99208.00;89754;1273;80306;-62
2022/01/31 09:04:33;;;;;;;13.00;3.60;;;;;;;2.33;76.85;99208.67;89774;1273;79754;-63
2022/01/31 09:06:43;;;;;;;10.30;3.90;;;;;;;2.42;77.05;99206.16;89747;1273;98784;-69
2022/01/31 09:08:53;;;;;;;12.20;5.10;;;;;;;2.55;76.91;99209.47;89762;1273;87414;-62
2022/01/31 09:11:02;;;;;;;11.00;3.80;;;;;;;2.62;76.74;99205.13;89756;1273;95142;-63
2022/01/31 09:13:14;;;;;;;11.80;3.60;;;;;;;2.59;76.60;99205.34;89748;1273;79072;-63
2022/01/31 09:15:24;;;;;;;11.30;4.30;;;;;;;2.55;76.49;99206.14;89755;1273;83711;-63
2022/01/31 09:17:36;;;;;;;13.60;4.30;;;;;;;2.48;76.59;99207.27;89706;1274;99125;-63
2022/01/31 09:19:44;;;;;;;11.40;4.10;;;;;;;2.49;76.64;99205.38;89767;1273;87558;-69
2022/01/31 09:21:53;;;;;;;13.40;3.50;;;;;;;2.50;76.63;99201.67;89751;1273;92724;-69
2022/01/31 09:24:02;;;;;;;13.70;4.50;;;;;;;2.53;76.57;99201.37;89733;1273;76524;-69
2022/01/31 09:26:11;;;;;;;15.60;4.10;;;;;;;2.63;76.58;99204.16;89765;1272;82704;-69
2022/01/31 09:28:20;;;;;;;10.50;3.90;;;;;;;2.77;76.50;99190.48;89753;1273;99254;-68
2022/01/31 09:30:29;;;;;;;16.00;4.40;;;;;;;2.99;76.61;99182.20;89740;1273;89354;-69
2022/01/31 09:32:40;;;;;;;11.70;4.30;;;;;;;3.21;76.53;99181.33;89742;1271;95436;-69
2022/01/31 09:34:49;;;;;;;13.70;5.20;;;;;;;3.28;76.23;99179.45;89759;1273;77695;-69
2022/01/31 09:36:58;;;;;;;11.60;4.30;;;;;;;3.45;76.31;99182.48;89771;1273;81045;-69
2022/01/31 09:39:10;;;;;;;13.90;4.60;;;;;;;3.68;75.98;99176.54;89761;1273;99708;-62
2022/01/31 09:41:23;;;;;;;11.10;3.90;;;;;;;4.00;76.01;99163.59;89745;1273;87462;-63
2022/01/31 09:43:59;;;;;;;11.70;4.10;;;;;;;4.12;75.59;99159.90;89524;1273;94377;-62
2022/01/31 09:46:31;;;;;;;12.90;3.80;;;;;;;4.31;75.33;99156.94;89744;1273;76978;-63
2022/01/31 09:48:44;;;;;;;13.50;3.90;;;;;;;4.72;74.86;99152.86;89773;1273;81696;-62
2022/01/31 09:50:53;;;;;;;14.20;4.30;;;;;;;5.20;74.79;99148.80;89761;1273;99166;-62
2022/01/31 09:53:01;;;;;;;10.90;3.90;;;;;;;5.51;74.42;99145.95;89750;1273;86729;-63
2022/01/31 09:55:12;;;;;;;9.90;3.60;;;;;;;5.58;73.50;99138.95;89736;1273;95363;-70
2022/01/31 09:57:23;;;;;;;8.40;3.80;;;;;;;5.76;72.47;99140.34;89767;1273;78465;-70
2022/01/31 09:59:32;;;;;;;13.80;4.20;;;;;;;6.02;72.10;99139.34;89773;1273;82741;-62
2022/01/31 10:01:50;;;;;;;11.30;3.70;;;;;;;6.21;71.39;99135.72;89762;1273;98367;-62
2022/01/31 10:04:01;;;;;;;9.70;3.40;;;;;;;6.12;71.04;99140.39;89755;1273;88722;-61
2022/01/31 10:06:21;;;;;;;11.10;3.70;;;;;;;6.35;71.56;99135.67;89746;1273;94301;-67
2022/01/31 10:08:33;;;;;;;8.50;2.90;;;;;;;6.22;70.99;99128.96;89741;1273;78464;-62
2022/01/31 10:10:48;;;;;;;9.70;3.00;;;;;;;6.12;70.63;99127.92;89771;1273;81850;-62
2022/01/31 10:18:33;;;;;;;10.60;3.80;;;;;;;7.33;69.22;99120.11;89157;1281;95602;-69
2022/01/31 10:20:46;;;;;;;6.50;3.00;;;;;;;7.63;68.56;99113.45;89496;1273;80949;-70
2022/01/31 10:23:06;;;;;;;8.10;3.20;;;;;;;7.88;68.13;99116.71;89762;1273;82678;-71
2022/01/31 10:25:24;;;;;;;9.20;3.60;;;;;;;7.40;67.83;99119.40;89745;1273;99044;-70